Time;durP1;ratioP1;P1;durP2;ratioP2;P2;SDS_P1;SDS_P2;PMS_P1;PMS_P2;Temp;Humidity;BMP_temperature;BMP_pressure;BME280_temperature;BME280_humidity;BME280_pressure;Samples;Min_cycle;Max_cycle;Signal;HPM_P1;HPM_P2
2022/04/13 00:01:36;;;;;;;;;;;14.40;77.40;;;;;;5067971;28;20625;-67
2022/04/13 00:04:01;;;;;;;;;;;14.40;77.20;;;;;;5068270;28;19912;-68
2022/04/13 00:06:27;;;;;;;;;;;14.40;77.00;;;;;;5068030;28;19912;-68
2022/04/13 00:08:55;;;;;;;;;;;14.40;77.20;;;;;;5065709;28;19956;-68
2022/04/13 00:11:21;;;;;;;;;;;14.40;77.30;;;;;;5067556;28;19912;-67
2022/04/13 00:13:47;;;;;;;;;;;14.30;77.30;;;;;;5068444;28;19912;-67
2022/04/13 00:16:12;;;;;;;;;;;14.30;77.50;;;;;;5049826;28;19912;-67
2022/04/13 00:18:38;;;;;;;;;;;14.30;77.20;;;;;;5068344;28;20659;-67
2022/04/13 00:21:04;;;;;;;;;;;14.20;77.70;;;;;;5068330;28;20276;-67
2022/04/13 00:23:30;;;;;;;;;;;14.30;77.40;;;;;;5067271;28;19919;-67
2022/04/13 00:25:57;;;;;;;;;;;14.20;77.50;;;;;;5063768;28;19916;-68
2022/04/13 00:28:23;;;;;;;;;;;14.20;77.80;;;;;;5053816;28;19956;-67
2022/04/13 00:30:49;;;;;;;;;;;14.20;77.70;;;;;;5047536;28;19940;-67
2022/04/13 00:33:14;;;;;;;;;;;14.20;77.70;;;;;;5062012;28;19965;-67
2022/04/13 00:35:40;;;;;;;;;;;14.10;77.80;;;;;;5066890;28;19909;-67
2022/04/13 00:38:06;;;;;;;;;;;14.10;77.70;;;;;;5075962;28;20007;-67
2022/04/13 00:40:31;;;;;;;;;;;14.10;77.80;;;;;;5066030;28;19931;-68
2022/04/13 00:42:57;;;;;;;;;;;14.10;77.80;;;;;;5067090;28;19908;-67
2022/04/13 00:45:22;;;;;;;;;;;14.10;77.90;;;;;;5050164;28;20604;-68
2022/04/13 00:47:48;;;;;;;;;;;14.10;78.10;;;;;;5067051;28;20549;-67
2022/04/13 00:50:13;;;;;;;;;;;14.10;77.90;;;;;;5070938;28;19954;-67
2022/04/13 00:52:43;;;;;;;;;;;14.00;77.90;;;;;;5066725;28;20007;-67
2022/04/13 00:55:09;;;;;;;;;;;14.00;77.80;;;;;;5067332;28;19912;-67
2022/04/13 00:57:35;;;;;;;;;;;14.00;77.80;;;;;;5064327;28;19915;-68
2022/04/13 01:00:02;;;;;;;;;;;14.00;78.10;;;;;;5067519;28;20467;-67
2022/04/13 01:02:27;;;;;;;;;;;13.90;78.00;;;;;;5066664;28;20253;-67
2022/04/13 01:04:53;;;;;;;;;;;13.90;78.20;;;;;;5048980;28;19912;-68
2022/04/13 01:07:18;;;;;;;;;;;13.90;78.20;;;;;;5066951;28;19920;-67
2022/04/13 01:09:44;;;;;;;;;;;13.90;78.30;;;;;;5066610;28;19917;-68
2022/04/13 01:12:09;;;;;;;;;;;13.90;78.20;;;;;;5066662;28;19991;-67
2022/04/13 01:14:36;;;;;;;;;;;13.80;78.30;;;;;;5066914;28;19908;-67
2022/04/13 01:17:02;;;;;;;;;;;13.80;78.30;;;;;;5066407;28;19918;-67
2022/04/13 01:19:28;;;;;;;;;;;13.80;78.40;;;;;;5066691;28;19940;-67
2022/04/13 01:21:58;;;;;;;;;;;13.80;78.20;;;;;;5063110;28;19958;-68
2022/04/13 01:24:24;;;;;;;;;;;13.80;78.30;;;;;;5065606;28;19916;-67
2022/04/13 01:26:50;;;;;;;;;;;13.80;78.30;;;;;;5065700;28;20361;-67
2022/04/13 01:29:16;;;;;;;;;;;13.80;78.40;;;;;;5065376;28;19912;-67
2022/04/13 01:31:43;;;;;;;;;;;13.70;78.30;;;;;;5064561;28;19913;-67
2022/04/13 01:34:09;;;;;;;;;;;13.70;78.30;;;;;;5047956;28;20361;-67
2022/04/13 01:36:35;;;;;;;;;;;13.70;78.30;;;;;;5072570;28;19922;-67
2022/04/13 01:39:00;;;;;;;;;;;13.70;78.30;;;;;;5078622;28;19908;-67
2022/04/13 01:41:26;;;;;;;;;;;13.70;78.30;;;;;;5047259;28;20376;-67
2022/04/13 01:43:51;;;;;;;;;;;13.70;78.30;;;;;;5070691;28;19912;-67
2022/04/13 01:46:17;;;;;;;;;;;13.70;78.30;;;;;;5066273;28;20373;-67
2022/04/13 01:48:42;;;;;;;;;;;13.60;78.30;;;;;;5066157;28;19997;-67
2022/04/13 01:51:08;;;;;;;;;;;13.60;78.20;;;;;;5067371;28;19912;-67
2022/04/13 01:53:35;;;;;;;;;;;13.60;78.20;;;;;;5065868;28;19966;-67
2022/04/13 01:56:00;;;;;;;;;;;13.60;78.30;;;;;;5063436;28;19915;-67
2022/04/13 01:58:26;;;;;;;;;;;13.60;78.30;;;;;;5065811;28;19916;-67
2022/04/13 02:00:53;;;;;;;;;;;13.60;78.30;;;;;;5065965;28;19915;-67
2022/04/13 02:03:23;;;;;;;;;;;13.60;78.30;;;;;;5065381;28;19957;-67
2022/04/13 02:05:49;;;;;;;;;;;13.50;78.30;;;;;;5065506;28;19913;-67
2022/04/13 02:08:14;;;;;;;;;;;13.50;78.40;;;;;;5065770;28;19970;-67
2022/04/13 02:10:40;;;;;;;;;;;13.50;78.40;;;;;;5065860;28;20023;-67
2022/04/13 02:13:06;;;;;;;;;;;13.50;78.30;;;;;;5065544;28;20616;-67
2022/04/13 02:15:31;;;;;;;;;;;13.50;78.30;;;;;;5065808;28;19958;-67
2022/04/13 02:17:57;;;;;;;;;;;13.50;78.50;;;;;;5047521;28;20615;-67
2022/04/13 02:20:22;;;;;;;;;;;13.50;78.50;;;;;;5065259;28;20011;-67
2022/04/13 02:22:48;;;;;;;;;;;13.40;78.60;;;;;;5064615;28;19912;-67
2022/04/13 02:25:13;;;;;;;;;;;13.40;78.60;;;;;;5065634;28;19919;-67
2022/04/13 02:27:39;;;;;;;;;;;13.40;78.80;;;;;;5065557;28;19951;-67
2022/04/13 02:30:06;;;;;;;;;;;13.40;78.80;;;;;;5065444;28;20667;-67
2022/04/13 02:32:31;;;;;;;;;;;13.40;78.90;;;;;;5064511;28;19916;-67
2022/04/13 02:34:57;;;;;;;;;;;13.30;79.00;;;;;;5065171;28;20524;-67
2022/04/13 02:37:22;;;;;;;;;;;13.30;79.00;;;;;;5065434;28;19913;-67
2022/04/13 02:39:48;;;;;;;;;;;13.30;79.00;;;;;;5064380;28;20015;-67
2022/04/13 02:42:15;;;;;;;;;;;13.30;79.00;;;;;;5060865;28;19956;-67
2022/04/13 02:44:43;;;;;;;;;;;13.20;79.20;;;;;;5063533;28;19926;-67
2022/04/13 02:47:09;;;;;;;;;;;13.20;79.20;;;;;;5065508;28;19965;-67
2022/04/13 02:49:35;;;;;;;;;;;13.20;79.20;;;;;;5052114;28;19916;-67
2022/04/13 02:52:00;;;;;;;;;;;13.20;79.20;;;;;;5081711;28;19996;-67
2022/04/13 02:54:26;;;;;;;;;;;13.20;79.30;;;;;;5065373;28;20461;-67
2022/04/13 02:56:51;;;;;;;;;;;13.10;79.20;;;;;;5065096;28;19912;-67
2022/04/13 02:59:17;;;;;;;;;;;13.10;79.30;;;;;;5062528;28;19908;-67
2022/04/13 03:01:43;;;;;;;;;;;13.10;79.30;;;;;;5064553;28;19909;-67
2022/04/13 03:04:09;;;;;;;;;;;13.00;79.40;;;;;;5064085;28;19916;-67
2022/04/13 03:06:35;;;;;;;;;;;13.00;79.40;;;;;;5046614;28;19981;-67
2022/04/13 03:09:01;;;;;;;;;;;13.00;79.30;;;;;;5064397;28;20034;-67
2022/04/13 03:11:26;;;;;;;;;;;13.00;79.40;;;;;;5064750;28;20363;-67
2022/04/13 03:13:52;;;;;;;;;;;13.00;79.40;;;;;;5064663;28;20000;-67
2022/04/13 03:16:18;;;;;;;;;;;13.00;79.40;;;;;;5043836;28;20026;-67
2022/04/13 03:18:44;;;;;;;;;;;12.90;79.60;;;;;;5064668;28;19999;-67
2022/04/13 03:21:09;;;;;;;;;;;12.90;79.60;;;;;;5064811;28;20003;-67
2022/04/13 03:23:35;;;;;;;;;;;12.90;79.40;;;;;;5064779;28;19912;-67
2022/04/13 03:26:00;;;;;;;;;;;12.90;79.60;;;;;;5064615;28;19908;-67
2022/04/13 03:28:26;;;;;;;;;;;12.90;79.70;;;;;;5054622;28;19973;-67
2022/04/13 03:30:52;;;;;;;;;;;12.90;79.70;;;;;;5063616;28;19920;-67
2022/04/13 03:33:17;;;;;;;;;;;12.80;79.80;;;;;;5063234;28;19915;-67
2022/04/13 03:35:43;;;;;;;;;;;12.80;79.80;;;;;;5064150;28;19912;-67
2022/04/13 03:38:09;;;;;;;;;;;12.80;79.70;;;;;;5063611;28;19912;-67
2022/04/13 03:40:34;;;;;;;;;;;12.80;79.80;;;;;;5064237;28;19920;-67
2022/04/13 03:43:00;;;;;;;;;;;12.80;79.90;;;;;;5064023;28;19951;-67
2022/04/13 03:45:25;;;;;;;;;;;12.70;79.90;;;;;;5064343;28;19920;-67
2022/04/13 03:47:51;;;;;;;;;;;12.70;80.00;;;;;;5065801;28;19930;-67
2022/04/13 03:50:17;;;;;;;;;;;12.70;80.00;;;;;;5060856;28;19920;-67
2022/04/13 03:52:43;;;;;;;;;;;12.70;80.20;;;;;;5073502;28;19908;-67
2022/04/13 03:55:09;;;;;;;;;;;12.70;80.20;;;;;;5064422;28;19970;-67
2022/04/13 03:57:34;;;;;;;;;;;12.60;80.30;;;;;;5061937;28;19912;-67
2022/04/13 04:00:05;;;;;;;;;;;12.60;80.30;;;;;;5063776;28;20392;-67
2022/04/13 04:02:31;;;;;;;;;;;12.60;80.30;;;;;;5064420;28;19908;-67
2022/04/13 04:04:56;;;;;;;;;;;12.60;80.50;;;;;;5064260;28;20280;-67
2022/04/13 04:07:22;;;;;;;;;;;12.50;80.40;;;;;;5064533;28;19919;-67
2022/04/13 04:09:47;;;;;;;;;;;12.50;80.30;;;;;;5064623;28;20592;-67
2022/04/13 04:12:14;;;;;;;;;;;12.50;80.40;;;;;;5064116;28;19939;-67
2022/04/13 04:14:39;;;;;;;;;;;12.50;80.40;;;;;;5066017;28;19908;-67
2022/04/13 04:17:05;;;;;;;;;;;12.50;80.50;;;;;;5066942;28;19918;-67
2022/04/13 04:19:30;;;;;;;;;;;12.50;80.50;;;;;;5068080;28;19999;-67
2022/04/13 04:21:56;;;;;;;;;;;12.40;80.50;;;;;;5068120;28;20460;-67
2022/04/13 04:24:22;;;;;;;;;;;12.40;80.30;;;;;;5067341;28;19909;-67
2022/04/13 04:26:47;;;;;;;;;;;12.40;80.40;;;;;;5050213;28;20782;-67
2022/04/13 04:29:13;;;;;;;;;;;12.40;80.40;;;;;;5068057;28;20407;-67
2022/04/13 04:31:51;;;;;;;;;;;12.40;80.60;;;;;;5066681;28;19995;-67
2022/04/13 04:34:17;;;;;;;;;;;12.30;80.40;;;;;;5068127;28;19993;-67
2022/04/13 04:36:42;;;;;;;;;;;12.30;80.40;;;;;;5064826;28;19909;-67
2022/04/13 04:39:08;;;;;;;;;;;12.30;80.40;;;;;;5065206;28;19943;-67
2022/04/13 04:41:34;;;;;;;;;;;12.30;80.30;;;;;;5066875;28;20443;-67
2022/04/13 04:44:00;;;;;;;;;;;12.30;80.30;;;;;;5067819;28;19909;-67
2022/04/13 04:46:25;;;;;;;;;;;12.30;80.30;;;;;;5067183;28;20069;-67
2022/04/13 04:48:51;;;;;;;;;;;12.30;80.20;;;;;;5068128;28;20071;-67
2022/04/13 04:51:16;;;;;;;;;;;12.30;80.30;;;;;;5064791;28;19923;-67
2022/04/13 04:53:42;;;;;;;;;;;12.20;80.20;;;;;;5070773;28;20058;-67
2022/04/13 04:56:07;;;;;;;;;;;12.20;80.20;;;;;;5067588;28;19916;-67
2022/04/13 04:58:33;;;;;;;;;;;12.20;80.20;;;;;;5067364;28;19912;-67
2022/04/13 05:00:58;;;;;;;;;;;12.20;80.30;;;;;;5067542;28;19916;-67
2022/04/13 05:03:24;;;;;;;;;;;12.20;80.20;;;;;;5050974;28;19912;-67
2022/04/13 05:05:49;;;;;;;;;;;12.20;80.30;;;;;;5067421;28;19939;-67
2022/04/13 05:08:15;;;;;;;;;;;12.20;80.20;;;;;;5067202;28;19974;-67
2022/04/13 05:10:50;;;;;;;;;;;12.20;80.30;;;;;;5066682;28;19995;-67
2022/04/13 05:13:19;;;;;;;;;;;12.20;80.30;;;;;;5067322;28;20690;-67
2022/04/13 05:15:45;;;;;;;;;;;12.20;80.40;;;;;;5066675;28;20230;-67
2022/04/13 05:18:11;;;;;;;;;;;12.20;80.20;;;;;;5049188;28;19915;-67
2022/04/13 05:20:37;;;;;;;;;;;12.10;80.10;;;;;;5066792;28;19912;-67
2022/04/13 05:23:02;;;;;;;;;;;12.20;80.20;;;;;;5066902;28;19918;-67
2022/04/13 05:25:28;;;;;;;;;;;12.10;80.00;;;;;;5065870;28;19912;-67
2022/04/13 05:27:53;;;;;;;;;;;12.10;79.90;;;;;;5066311;28;20357;-67
2022/04/13 05:30:19;;;;;;;;;;;12.10;79.90;;;;;;5066630;28;19917;-67
2022/04/13 05:32:48;;;;;;;;;;;12.10;79.90;;;;;;5065211;28;20060;-67
2022/04/13 05:35:14;;;;;;;;;;;12.20;80.00;;;;;;5067048;28;20293;-67
2022/04/13 05:37:39;;;;;;;;;;;12.20;80.00;;;;;;5064716;28;20012;-67
2022/04/13 05:40:05;;;;;;;;;;;12.20;80.00;;;;;;5048143;28;19923;-67
2022/04/13 05:42:31;;;;;;;;;;;12.20;79.80;;;;;;5066365;28;20361;-67
2022/04/13 05:44:57;;;;;;;;;;;12.20;79.70;;;;;;5063534;28;20018;-67
2022/04/13 05:47:22;;;;;;;;;;;12.20;79.70;;;;;;5066346;28;20427;-67
2022/04/13 05:49:48;;;;;;;;;;;12.20;79.60;;;;;;5070762;28;19985;-67
2022/04/13 05:52:13;;;;;;;;;;;12.30;79.50;;;;;;5071564;28;19912;-67
2022/04/13 05:54:39;;;;;;;;;;;12.30;79.40;;;;;;5048714;28;20023;-67
2022/04/13 05:57:04;;;;;;;;;;;12.30;79.30;;;;;;5068133;28;20380;-67
2022/04/13 05:59:30;;;;;;;;;;;12.30;79.00;;;;;;5066470;28;19943;-67
2022/04/13 06:01:55;;;;;;;;;;;12.30;79.10;;;;;;5065852;28;20379;-67
2022/04/13 06:04:22;;;;;;;;;;;12.40;78.90;;;;;;5063860;28;20003;-67
2022/04/13 06:06:47;;;;;;;;;;;12.40;79.00;;;;;;5063405;28;19908;-67
2022/04/13 06:09:13;;;;;;;;;;;12.40;79.00;;;;;;5066190;28;19920;-67
2022/04/13 06:11:38;;;;;;;;;;;12.40;79.00;;;;;;5065552;28;20003;-67
2022/04/13 06:14:04;;;;;;;;;;;12.40;78.90;;;;;;5065943;28;21158;-67
2022/04/13 06:16:30;;;;;;;;;;;12.40;78.80;;;;;;5065636;28;20561;-67
2022/04/13 06:18:55;;;;;;;;;;;12.50;78.80;;;;;;5065606;28;19924;-67
2022/04/13 06:21:20;;;;;;;;;;;12.50;78.70;;;;;;5065305;28;20118;-67
2022/04/13 06:23:47;;;;;;;;;;;12.60;78.50;;;;;;5065587;28;19920;-67
2022/04/13 06:26:13;;;;;;;;;;;12.60;78.40;;;;;;5065203;28;19920;-67
2022/04/13 06:28:38;;;;;;;;;;;12.70;78.30;;;;;;5062949;28;19916;-67
2022/04/13 06:31:04;;;;;;;;;;;12.70;78.20;;;;;;5065156;28;20433;-67
2022/04/13 06:33:29;;;;;;;;;;;12.80;78.00;;;;;;5064223;28;20369;-67
2022/04/13 06:35:55;;;;;;;;;;;12.80;78.00;;;;;;5065673;28;19967;-66
2022/04/13 06:38:20;;;;;;;;;;;12.90;77.90;;;;;;5065115;28;19908;-67
2022/04/13 06:40:46;;;;;;;;;;;12.90;77.70;;;;;;5065108;28;19908;-67
2022/04/13 06:43:11;;;;;;;;;;;13.00;77.80;;;;;;5064922;28;19912;-67
2022/04/13 06:45:36;;;;;;;;;;;13.00;77.80;;;;;;5047422;28;20345;-67
2022/04/13 06:48:02;;;;;;;;;;;13.00;77.70;;;;;;5046918;28;19920;-67
2022/04/13 06:50:28;;;;;;;;;;;13.10;77.40;;;;;;5075145;28;19908;-67
2022/04/13 06:52:53;;;;;;;;;;;13.10;77.40;;;;;;5066455;28;19923;-67
2022/04/13 06:55:19;;;;;;;;;;;13.10;77.50;;;;;;5064455;28;19958;-67
2022/04/13 06:57:44;;;;;;;;;;;13.20;77.40;;;;;;5071413;28;20007;-67
2022/04/13 07:00:11;;;;;;;;;;;13.20;77.30;;;;;;5071288;28;20309;-67
2022/04/13 07:02:38;;;;;;;;;;;13.30;77.20;;;;;;5066908;28;19916;-67
2022/04/13 07:05:03;;;;;;;;;;;13.30;77.30;;;;;;5047045;28;20429;-67
2022/04/13 07:07:29;;;;;;;;;;;13.30;77.10;;;;;;5065011;28;19916;-67
2022/04/13 07:09:55;;;;;;;;;;;13.40;77.10;;;;;;5065200;28;20008;-67
2022/04/13 07:12:20;;;;;;;;;;;13.40;77.10;;;;;;5064540;28;19973;-67
2022/04/13 07:14:46;;;;;;;;;;;13.40;77.10;;;;;;5062543;28;19909;-67
2022/04/13 07:17:11;;;;;;;;;;;13.40;77.10;;;;;;5064480;28;19933;-67
2022/04/13 07:19:37;;;;;;;;;;;13.50;76.90;;;;;;5065034;28;19935;-67
2022/04/13 07:22:03;;;;;;;;;;;13.60;77.10;;;;;;5064639;28;20031;-67
2022/04/13 07:24:28;;;;;;;;;;;13.60;76.90;;;;;;5064751;28;20030;-67
2022/04/13 07:26:54;;;;;;;;;;;13.70;76.90;;;;;;5064827;28;19956;-67
2022/04/13 07:29:19;;;;;;;;;;;13.70;76.70;;;;;;5064447;28;19956;-67
2022/04/13 07:31:45;;;;;;;;;;;13.80;76.70;;;;;;5063227;28;19919;-67
2022/04/13 07:34:10;;;;;;;;;;;13.90;76.50;;;;;;5064022;28;19919;-67
2022/04/13 07:36:36;;;;;;;;;;;13.90;76.40;;;;;;5064594;28;19912;-67
2022/04/13 07:39:02;;;;;;;;;;;14.00;76.50;;;;;;5063652;28;19916;-67
2022/04/13 07:41:28;;;;;;;;;;;14.00;75.90;;;;;;5049251;28;19958;-67
2022/04/13 07:43:55;;;;;;;;;;;14.10;76.00;;;;;;5063527;28;20260;-67
2022/04/13 07:46:21;;;;;;;;;;;14.20;76.10;;;;;;5064352;28;20341;-67
2022/04/13 07:48:47;;;;;;;;;;;14.30;76.20;;;;;;5064938;28;19920;-67
2022/04/13 07:51:12;;;;;;;;;;;14.30;75.70;;;;;;5079080;28;19909;-67
2022/04/13 07:53:38;;;;;;;;;;;14.40;75.50;;;;;;5050708;28;19912;-67
2022/04/13 07:56:03;;;;;;;;;;;14.40;75.10;;;;;;5068524;28;19912;-67
2022/04/13 07:58:29;;;;;;;;;;;14.50;75.60;;;;;;5068126;28;19916;-67
2022/04/13 08:00:55;;;;;;;;;;;14.50;75.40;;;;;;5069686;28;19965;-67
2022/04/13 08:03:20;;;;;;;;;;;14.50;75.30;;;;;;5069419;28;20007;-67
2022/04/13 08:05:46;;;;;;;;;;;14.50;75.30;;;;;;5068926;28;19912;-67
2022/04/13 08:08:11;;;;;;;;;;;14.60;75.40;;;;;;5068104;28;19916;-67
2022/04/13 08:10:37;;;;;;;;;;;14.60;75.10;;;;;;5068279;28;19912;-67
2022/04/13 08:13:02;;;;;;;;;;;14.70;75.10;;;;;;5063313;28;20624;-67
2022/04/13 08:15:28;;;;;;;;;;;14.70;75.00;;;;;;5068137;28;19913;-67
2022/04/13 08:17:53;;;;;;;;;;;14.80;75.10;;;;;;5068158;28;19912;-67
2022/04/13 08:20:19;;;;;;;;;;;14.80;75.20;;;;;;5068114;28;19913;-67
2022/04/13 08:22:46;;;;;;;;;;;14.80;74.80;;;;;;5049694;28;19920;-67
2022/04/13 08:25:12;;;;;;;;;;;14.90;74.80;;;;;;5067569;28;19915;-67
2022/04/13 08:27:38;;;;;;;;;;;14.90;74.60;;;;;;5048581;28;20555;-67
2022/04/13 08:30:04;;;;;;;;;;;15.00;74.40;;;;;;5068025;28;20014;-67
2022/04/13 08:32:29;;;;;;;;;;;15.10;74.50;;;;;;5066679;28;19913;-67
2022/04/13 08:34:55;;;;;;;;;;;15.10;74.60;;;;;;5049737;28;19917;-67
2022/04/13 08:37:21;;;;;;;;;;;15.20;74.50;;;;;;5067696;28;20037;-67
2022/04/13 08:39:46;;;;;;;;;;;15.20;74.20;;;;;;5067366;28;19936;-67
2022/04/13 08:42:13;;;;;;;;;;;15.30;74.20;;;;;;5067779;28;19975;-67
2022/04/13 08:44:50;;;;;;;;;;;15.30;74.30;;;;;;5067213;28;19912;-67
2022/04/13 08:47:20;;;;;;;;;;;15.40;74.40;;;;;;5049112;28;19912;-67
2022/04/13 08:49:48;;;;;;;;;;;15.40;74.60;;;;;;5071027;28;19922;-67
2022/04/13 08:52:14;;;;;;;;;;;15.50;74.60;;;;;;5071786;28;19913;-67
2022/04/13 08:54:41;;;;;;;;;;;15.60;74.50;;;;;;5066762;28;20269;-67
2022/04/13 08:57:08;;;;;;;;;;;15.60;73.70;;;;;;5067879;28;20340;-67
2022/04/13 08:59:49;;;;;;;;;;;15.60;73.70;;;;;;5067527;28;20548;-67
2022/04/13 09:02:25;;;;;;;;;;;15.70;73.60;;;;;;5066267;28;19940;-67
2022/04/13 09:04:51;;;;;;;;;;;15.70;74.60;;;;;;5067670;28;20625;-67
2022/04/13 09:07:17;;;;;;;;;;;15.80;74.20;;;;;;5064533;28;20477;-67
2022/04/13 09:09:46;;;;;;;;;;;15.80;74.20;;;;;;5067427;28;19916;-67
2022/04/13 09:12:13;;;;;;;;;;;15.80;74.10;;;;;;5071237;28;19918;-67
2022/04/13 09:14:39;;;;;;;;;;;15.90;74.20;;;;;;5072389;28;20373;-67
2022/04/13 09:17:05;;;;;;;;;;;16.00;73.80;;;;;;5067182;28;19928;-67
2022/04/13 09:19:32;;;;;;;;;;;16.00;74.30;;;;;;5067267;28;19909;-67
2022/04/13 09:21:58;;;;;;;;;;;16.10;73.40;;;;;;5048978;28;19913;-67
2022/04/13 09:24:24;;;;;;;;;;;16.10;73.70;;;;;;5066434;28;19912;-67
2022/04/13 09:26:49;;;;;;;;;;;16.10;73.70;;;;;;5067102;28;19909;-67
2022/04/13 09:29:15;;;;;;;;;;;16.20;73.30;;;;;;5066834;28;20301;-67
2022/04/13 09:31:41;;;;;;;;;;;16.20;73.60;;;;;;5065772;28;19935;-67
2022/04/13 09:34:06;;;;;;;;;;;16.20;73.30;;;;;;5048976;28;20584;-67
2022/04/13 09:36:32;;;;;;;;;;;16.30;73.50;;;;;;5066963;28;19939;-67
2022/04/13 09:38:59;;;;;;;;;;;16.40;73.30;;;;;;5047766;28;19912;-67
2022/04/13 09:41:34;;;;;;;;;;;16.40;73.10;;;;;;5065786;28;19912;-67
2022/04/13 09:43:59;;;;;;;;;;;16.50;73.00;;;;;;5066300;28;19919;-67
2022/04/13 09:46:26;;;;;;;;;;;16.50;72.80;;;;;;5048598;28;19913;-67
2022/04/13 09:49:06;;;;;;;;;;;16.60;73.00;;;;;;5066447;28;19935;-67
2022/04/13 09:51:38;;;;;;;;;;;16.60;73.00;;;;;;5069570;28;20520;-67
2022/04/13 09:54:08;;;;;;;;;;;16.70;73.30;;;;;;5066045;28;19912;-67
2022/04/13 09:56:35;;;;;;;;;;;16.80;72.80;;;;;;5065791;28;20360;-67
2022/04/13 09:59:01;;;;;;;;;;;16.90;72.90;;;;;;5062949;28;19912;-67
2022/04/13 10:01:28;;;;;;;;;;;16.90;72.80;;;;;;5066194;28;19939;-67
2022/04/13 10:03:55;;;;;;;;;;;17.00;72.60;;;;;;5065488;28;19920;-67
2022/04/13 10:06:30;;;;;;;;;;;17.00;73.10;;;;;;5064786;28;19915;-67
2022/04/13 10:09:10;;;;;;;;;;;17.00;72.50;;;;;;5047026;28;19968;-67
2022/04/13 10:11:36;;;;;;;;;;;17.00;72.60;;;;;;5063932;28;19951;-67
2022/04/13 10:14:02;;;;;;;;;;;17.00;73.10;;;;;;5064201;28;19944;-67
2022/04/13 10:16:35;;;;;;;;;;;17.00;73.20;;;;;;5062433;28;19948;-67
2022/04/13 10:19:01;;;;;;;;;;;17.00;73.40;;;;;;5065479;28;19908;-67
2022/04/13 10:21:45;;;;;;;;;;;17.00;73.30;;;;;;5064693;28;20440;-67
2022/04/13 10:24:27;;;;;;;;;;;17.00;73.50;;;;;;5065366;28;19908;-67
2022/04/13 10:26:59;;;;;;;;;;;17.00;73.70;;;;;;5048153;28;19917;-67
2022/04/13 10:29:26;;;;;;;;;;;17.00;73.60;;;;;;5063135;28;19916;-67
2022/04/13 10:32:02;;;;;;;;;;;17.10;73.40;;;;;;5045328;28;19927;-67
2022/04/13 10:34:31;;;;;;;;;;;17.10;73.30;;;;;;5065087;28;19912;-67
2022/04/13 10:36:57;;;;;;;;;;;17.30;73.40;;;;;;5065041;28;19912;-67
2022/04/13 10:39:22;;;;;;;;;;;17.30;73.10;;;;;;5065502;28;19919;-67
2022/04/13 10:41:48;;;;;;;;;;;17.30;73.10;;;;;;5064589;28;20007;-67
2022/04/13 10:44:34;;;;;;;;;;;17.40;73.10;;;;;;5065552;28;19912;-67
2022/04/13 10:47:07;;;;;;;;;;;17.40;73.20;;;;;;5064610;28;19971;-67
2022/04/13 10:50:02;;;;;;;;;;;17.50;73.30;;;;;;5067462;28;19964;-67
2022/04/13 10:52:28;;;;;;;;;;;17.60;73.00;;;;;;5032454;28;19913;-67
2022/04/13 10:54:58;;;;;;;;;;;17.80;73.00;;;;;;5065018;28;19939;-67
2022/04/13 10:57:25;;;;;;;;;;;17.90;72.40;;;;;;5065385;28;19913;-67
2022/04/13 10:59:52;;;;;;;;;;;17.90;72.60;;;;;;5046981;28;19913;-67
2022/04/13 11:02:32;;;;;;;;;;;17.90;72.90;;;;;;5065002;28;19919;-67
2022/04/13 11:04:58;;;;;;;;;;;18.00;73.00;;;;;;5064728;28;19920;-67
2022/04/13 11:07:24;;;;;;;;;;;18.20;73.20;;;;;;5065412;28;19923;-67
2022/04/13 11:09:51;;;;;;;;;;;18.30;72.90;;;;;;5046698;28;19912;-68
2022/04/13 11:12:17;;;;;;;;;;;18.40;72.70;;;;;;5064850;28;19919;-67
2022/04/13 11:14:50;;;;;;;;;;;18.40;72.40;;;;;;5065185;28;19912;-67
2022/04/13 11:17:15;;;;;;;;;;;18.50;72.60;;;;;;5064796;28;19908;-67
2022/04/13 11:19:41;;;;;;;;;;;18.60;72.70;;;;;;5065180;28;19919;-67
2022/04/13 11:22:07;;;;;;;;;;;18.70;72.10;;;;;;5061495;28;19919;-67
2022/04/13 11:24:54;;;;;;;;;;;18.90;71.90;;;;;;5058510;28;19912;-67
2022/04/13 11:27:19;;;;;;;;;;;19.00;72.20;;;;;;5050211;28;19920;-67
2022/04/13 11:29:56;;;;;;;;;;;19.10;71.40;;;;;;5067084;28;20457;-68
2022/04/13 11:32:32;;;;;;;;;;;19.20;71.20;;;;;;5063502;28;19923;-67
2022/04/13 11:34:58;;;;;;;;;;;19.30;70.70;;;;;;5065352;28;19956;-67
2022/04/13 11:37:24;;;;;;;;;;;19.50;71.00;;;;;;5071419;28;19955;-67
2022/04/13 11:39:50;;;;;;;;;;;19.60;70.50;;;;;;5064857;28;19912;-67
2022/04/13 11:42:24;;;;;;;;;;;19.70;70.10;;;;;;5064852;28;19966;-68
2022/04/13 11:44:51;;;;;;;;;;;19.70;70.40;;;;;;5065373;28;19974;-68
2022/04/13 11:47:17;;;;;;;;;;;19.80;70.70;;;;;;5064862;28;20323;-68
2022/04/13 11:49:58;;;;;;;;;;;19.80;70.20;;;;;;5069366;28;20389;-68
2022/04/13 11:52:42;;;;;;;;;;;19.80;70.60;;;;;;5047838;28;19975;-68
2022/04/13 11:55:30;;;;;;;;;;;19.80;70.40;;;;;;5065465;28;19947;-68
2022/04/13 11:58:08;;;;;;;;;;;19.70;71.10;;;;;;5057270;28;19908;-68
2022/04/13 12:00:45;;;;;;;;;;;19.70;71.20;;;;;;5065259;28;19920;-68
2022/04/13 12:03:31;;;;;;;;;;;19.70;71.20;;;;;;5065236;28;20010;-68
2022/04/13 12:06:01;;;;;;;;;;;19.70;71.30;;;;;;5064219;28;20688;-68
2022/04/13 12:08:35;;;;;;;;;;;19.70;71.60;;;;;;5065969;28;19981;-68
2022/04/13 12:11:07;;;;;;;;;;;19.80;71.50;;;;;;5061142;28;19912;-68
2022/04/13 12:13:47;;;;;;;;;;;19.80;71.40;;;;;;5065917;28;19912;-68
2022/04/13 12:16:19;;;;;;;;;;;19.70;71.50;;;;;;5064980;28;19954;-69
2022/04/13 12:18:45;;;;;;;;;;;19.70;71.60;;;;;;5065272;28;20272;-68
2022/04/13 12:21:15;;;;;;;;;;;19.70;71.70;;;;;;5064911;28;19909;-68
2022/04/13 12:23:42;;;;;;;;;;;19.70;71.90;;;;;;5065229;28;19943;-68
2022/04/13 12:26:07;;;;;;;;;;;19.70;72.00;;;;;;5065247;28;19919;-68
2022/04/13 12:28:33;;;;;;;;;;;19.70;72.00;;;;;;5065007;28;19917;-68
2022/04/13 12:31:00;;;;;;;;;;;19.70;71.80;;;;;;5064533;28;19912;-68
2022/04/13 12:33:26;;;;;;;;;;;19.70;72.10;;;;;;5063606;28;19908;-68
2022/04/13 12:35:58;;;;;;;;;;;19.80;71.60;;;;;;5066921;28;20415;-68
2022/04/13 12:38:25;;;;;;;;;;;19.90;71.30;;;;;;5053147;28;19916;-68
2022/04/13 12:41:24;;;;;;;;;;;19.90;71.20;;;;;;5051734;28;19960;-68
2022/04/13 12:43:50;;;;;;;;;;;19.90;71.10;;;;;;5006542;28;19912;-68
2022/04/13 12:46:17;;;;;;;;;;;19.90;71.20;;;;;;5050473;28;19935;-68
2022/04/13 12:48:47;;;;;;;;;;;19.90;70.90;;;;;;5068485;28;19921;-68
2022/04/13 12:51:13;;;;;;;;;;;20.00;70.90;;;;;;5065494;28;20292;-68
2022/04/13 12:53:40;;;;;;;;;;;20.00;71.10;;;;;;5065848;28;20442;-68
2022/04/13 12:56:07;;;;;;;;;;;20.00;71.30;;;;;;5068529;28;20265;-68
2022/04/13 12:58:36;;;;;;;;;;;20.00;71.20;;;;;;5068104;28;19917;-68
2022/04/13 13:01:01;;;;;;;;;;;20.00;71.00;;;;;;5068129;28;20349;-68
2022/04/13 13:03:32;;;;;;;;;;;20.10;71.10;;;;;;5067828;28;19912;-68
2022/04/13 13:06:05;;;;;;;;;;;20.00;71.20;;;;;;5068267;28;20385;-68
2022/04/13 13:08:30;;;;;;;;;;;20.00;71.10;;;;;;5067646;28;20484;-68
2022/04/13 13:10:57;;;;;;;;;;;20.10;71.00;;;;;;5068223;28;19953;-68
2022/04/13 13:13:23;;;;;;;;;;;20.20;70.80;;;;;;5067226;28;19981;-68
2022/04/13 13:15:48;;;;;;;;;;;20.30;70.50;;;;;;5067575;28;19912;-68
2022/04/13 13:18:16;;;;;;;;;;;20.40;70.30;;;;;;5067264;28;20242;-68
2022/04/13 13:20:52;;;;;;;;;;;20.40;69.90;;;;;;5067877;28;20361;-68
2022/04/13 13:23:28;;;;;;;;;;;20.50;69.80;;;;;;5060748;28;19916;-68
2022/04/13 13:25:54;;;;;;;;;;;20.50;69.50;;;;;;5051324;28;19919;-68
2022/04/13 13:28:29;;;;;;;;;;;20.50;69.70;;;;;;5063225;28;19917;-68
2022/04/13 13:30:55;;;;;;;;;;;20.60;69.60;;;;;;5066502;28;19913;-68
2022/04/13 13:33:21;;;;;;;;;;;20.50;70.10;;;;;;5064983;28;19912;-68
2022/04/13 13:35:47;;;;;;;;;;;20.50;70.10;;;;;;5066209;28;20076;-68
2022/04/13 13:38:17;;;;;;;;;;;20.40;70.10;;;;;;5048689;28;19917;-68
2022/04/13 13:40:44;;;;;;;;;;;20.40;70.40;;;;;;5047922;28;19913;-68
2022/04/13 13:43:11;;;;;;;;;;;20.40;70.40;;;;;;5066138;28;20015;-68
2022/04/13 13:45:40;;;;;;;;;;;20.40;70.40;;;;;;5064881;28;19913;-68
2022/04/13 13:48:06;;;;;;;;;;;20.40;70.20;;;;;;5064586;28;19967;-68
2022/04/13 13:50:36;;;;;;;;;;;20.40;70.60;;;;;;5066064;28;19982;-68
2022/04/13 13:53:05;;;;;;;;;;;20.40;70.80;;;;;;5064354;28;20018;-68
2022/04/13 13:55:32;;;;;;;;;;;20.30;70.50;;;;;;5066018;28;20007;-68
2022/04/13 13:57:58;;;;;;;;;;;20.40;70.90;;;;;;5066844;28;20025;-68
2022/04/13 14:00:24;;;;;;;;;;;20.40;70.50;;;;;;5066905;28;20622;-68
2022/04/13 14:02:53;;;;;;;;;;;20.30;70.80;;;;;;5063207;28;19970;-68
2022/04/13 14:05:22;;;;;;;;;;;20.30;70.80;;;;;;5064942;28;19913;-68
2022/04/13 14:07:48;;;;;;;;;;;20.30;71.00;;;;;;5064653;28;19920;-68
2022/04/13 14:10:14;;;;;;;;;;;20.20;70.80;;;;;;5045031;28;19912;-68
2022/04/13 14:12:39;;;;;;;;;;;20.30;71.00;;;;;;5064802;28;20078;-68
2022/04/13 14:15:05;;;;;;;;;;;20.30;70.80;;;;;;5064356;28;20447;-68
2022/04/13 14:17:31;;;;;;;;;;;20.30;70.70;;;;;;5064977;28;19908;-68